LXGB/GIB METAR and TAF weather

Enter ICAO airport designator
Station Type Date Time Source
LXGB METAR 2022/05/23 14:20 UTC NOAA

LXGB 231420Z 24010KT CAVOK 27/17 Q1011 NOSIG RMK BLU BLU


Station Type Date Time Source
LXGB Decoded METAR 2022/05/23 14:20 UTC NOAA

Gibraltar, Gibraltar (LXGB) 36-09N 005-21W 0M
May 23, 2022 - 10:20 AM EDT / 2022.05.23 1420 UTC
Wind: from the WSW (240 degrees) at 12 MPH (10 KT):0
Visibility: greater than 7 mile(s):0
Temperature: 80 F (27 C)
Dew Point: 62 F (17 C)
Relative Humidity: 54%
Pressure (altimeter): 29.85 in. Hg (1011 hPa)
ob: LXGB 231420Z 24010KT CAVOK 27/17 Q1011 NOSIG RMK BLU BLU
cycle: 14

Station Type Date Time Source
LXGB TAF 2022/02/14 18:57 UTC NOAA

TAF
AMD TAF
AMD LXGB 141754Z 1418/1523 CNL

Example: see airport list